YCL weather

Charlo Airport
Charlo, New Brunswick, Canada

Public forecast

Using degrees Celsius for public forecast. Weather courtesy of forecast.io.

METAR (pilot weather report)

Closest report is Bathurst Airport, 32.2 nm (59.7 km) SE. Retrieved 2019/04/25 21:00 UTC (36 minutes ago):

CZBF 252100Z AUTO 06005KT 9SM OVC018 01/M02 A2999 RMK SLP160

TAF (pilot weather forecast)

Closest forecast is Bathurst Airport, 32.2 nm (59.7 km) SE. Retrieved 2019/04/25 20:00 UTC (2 hours ago):

TAF CZBF 251938Z 2520/2603 06008KT P6SM BKN020 OVC040 BECMG 2521/2523 VRB03KT BKN040 RMK FCST BASED ON AUTO OBS. NXT FCST WILL BE ISSUED AT 260845Z